createdAt,value
2017-05-25T00:00:22.911Z,16.01
2017-05-25T00:02:49.252Z,15.58
2017-05-25T00:05:15.622Z,15.63
2017-05-25T00:07:41.977Z,14.84
2017-05-25T00:10:08.340Z,14.21
2017-05-25T00:12:34.725Z,14.32
2017-05-25T00:15:01.073Z,14.51
2017-05-25T00:17:27.417Z,14.26
2017-05-25T00:19:53.768Z,15.10
2017-05-25T00:22:20.109Z,14.83
2017-05-25T00:24:46.447Z,14.95
2017-05-25T00:27:12.810Z,15.57
2017-05-25T00:29:39.138Z,14.96
2017-05-25T00:32:05.487Z,14.56
2017-05-25T00:34:31.842Z,14.51
2017-05-25T00:36:58.237Z,13.43
2017-05-25T00:39:24.621Z,13.48
2017-05-25T00:41:51.008Z,13.23
2017-05-25T00:44:17.390Z,13.33
2017-05-25T00:46:43.744Z,13.26
2017-05-25T00:49:10.123Z,13.40
2017-05-25T00:51:36.466Z,13.56
2017-05-25T00:54:02.792Z,13.43
2017-05-25T00:56:29.142Z,13.41
2017-05-25T00:58:55.497Z,13.26
2017-05-25T01:01:21.869Z,13.58
2017-05-25T01:03:48.216Z,14.06
2017-05-25T01:06:14.575Z,14.34
2017-05-25T01:08:40.982Z,14.79
2017-05-25T01:11:07.363Z,14.90
2017-05-25T01:13:33.709Z,14.56
2017-05-25T01:16:00.076Z,13.55
2017-05-25T01:18:26.475Z,12.75
2017-05-25T01:20:52.875Z,12.84
2017-05-25T01:23:19.238Z,13.28
2017-05-25T01:25:45.615Z,13.02
2017-05-25T01:28:11.961Z,13.84
2017-05-25T01:30:38.333Z,13.30
2017-05-25T01:33:04.687Z,12.85
2017-05-25T01:35:31.090Z,12.58
2017-05-25T01:37:57.455Z,12.71
2017-05-25T01:40:23.820Z,12.32
2017-05-25T01:42:50.191Z,12.33
2017-05-25T01:45:16.559Z,12.25
2017-05-25T01:47:42.971Z,12.55
2017-05-25T01:50:09.316Z,12.45
2017-05-25T01:52:35.664Z,13.20
2017-05-25T01:55:02.054Z,13.45
2017-05-25T01:57:28.375Z,14.07
2017-05-25T01:59:54.733Z,14.29
2017-05-25T02:02:21.080Z,13.29
2017-05-25T02:04:47.473Z,13.37
2017-05-25T02:07:13.798Z,13.19
2017-05-25T02:09:40.138Z,12.84
2017-05-25T02:12:06.486Z,12.63
2017-05-25T02:14:32.897Z,12.80
2017-05-25T02:16:59.740Z,12.28
2017-05-25T02:19:26.084Z,12.03
2017-05-25T02:21:52.444Z,12.71
2017-05-25T02:24:18.777Z,13.29
2017-05-25T02:26:45.451Z,12.60
2017-05-25T02:29:11.822Z,11.77
2017-05-25T02:31:38.150Z,11.40
2017-05-25T02:34:04.476Z,11.45
2017-05-25T02:36:30.827Z,11.55
2017-05-25T02:38:57.169Z,11.67
2017-05-25T02:41:23.545Z,11.60
2017-05-25T02:43:49.878Z,11.92
2017-05-25T02:46:16.213Z,12.44
2017-05-25T02:48:42.591Z,12.23
2017-05-25T02:51:08.927Z,12.97
2017-05-25T02:53:35.230Z,13.37
2017-05-25T02:56:01.554Z,12.88
2017-05-25T02:58:27.932Z,13.62
2017-05-25T03:00:54.274Z,14.13
2017-05-25T03:03:20.609Z,13.84
2017-05-25T03:05:46.973Z,13.08
2017-05-25T03:08:13.291Z,12.69
2017-05-25T03:10:39.667Z,13.47
2017-05-25T03:13:06.019Z,13.62
2017-05-25T03:15:32.330Z,13.15
2017-05-25T03:17:58.692Z,13.76
2017-05-25T03:20:25.131Z,14.57
2017-05-25T03:22:51.471Z,14.92
2017-05-25T03:25:17.799Z,14.01
2017-05-25T03:27:44.177Z,13.73
2017-05-25T03:30:10.506Z,13.85
2017-05-25T03:32:36.906Z,13.35
2017-05-25T03:35:03.257Z,13.50
2017-05-25T03:37:29.641Z,13.44
2017-05-25T03:39:56.001Z,13.21
2017-05-25T03:42:22.361Z,13.00
2017-05-25T03:44:48.707Z,13.71
2017-05-25T03:47:15.066Z,13.55
2017-05-25T03:49:41.397Z,13.33
2017-05-25T03:52:07.763Z,13.97
2017-05-25T03:54:34.115Z,13.83
2017-05-25T03:57:00.446Z,14.30
2017-05-25T03:59:26.790Z,14.87
2017-05-25T04:01:54.142Z,15.07
2017-05-25T04:04:20.625Z,14.15
2017-05-25T04:06:47.052Z,14.60
2017-05-25T04:09:13.369Z,14.41
2017-05-25T04:11:39.834Z,14.55
2017-05-25T04:14:06.163Z,14.44
2017-05-25T04:16:32.621Z,14.27
2017-05-25T04:19:04.239Z,14.16
2017-05-25T04:21:31.070Z,14.11
2017-05-25T04:23:57.507Z,14.08
2017-05-25T04:26:23.865Z,14.22
2017-05-25T04:28:50.383Z,14.66
2017-05-25T04:31:20.854Z,14.53
2017-05-25T04:33:47.373Z,14.55
2017-05-25T04:36:13.732Z,14.67
2017-05-25T04:38:45.561Z,14.76
2017-05-25T04:41:12.989Z,14.43
2017-05-25T04:43:39.425Z,14.30
2017-05-25T04:46:11.191Z,14.26
2017-05-25T04:48:37.525Z,14.32
2017-05-25T04:51:03.931Z,14.54
2017-05-25T04:53:30.621Z,14.27
2017-05-25T04:55:57.032Z,14.35
2017-05-25T04:58:23.375Z,14.02
2017-05-25T05:00:55.058Z,14.42
2017-05-25T05:03:21.503Z,14.30
2017-05-25T05:05:48.603Z,14.43
2017-05-25T05:08:14.937Z,14.37
2017-05-25T05:10:42.021Z,14.30
2017-05-25T05:13:08.468Z,14.42
2017-05-25T05:15:39.927Z,14.78
2017-05-25T05:18:06.330Z,14.82
2017-05-25T05:20:37.908Z,14.96
2017-05-25T05:23:04.343Z,14.52
2017-05-25T05:25:30.942Z,14.71
2017-05-25T05:27:58.164Z,14.36
2017-05-25T05:30:31.704Z,15.32
2017-05-25T05:32:59.111Z,14.53
2017-05-25T05:35:31.027Z,14.79
2017-05-25T05:37:57.869Z,15.24
2017-05-25T05:40:27.626Z,14.68
2017-05-25T05:42:59.611Z,14.60
2017-05-25T05:45:26.251Z,14.44
2017-05-25T05:47:57.900Z,14.89
2017-05-25T05:50:30.475Z,14.61
2017-05-25T05:52:58.118Z,15.02
2017-05-25T05:55:29.738Z,15.14
2017-05-25T05:57:56.137Z,15.41
2017-05-25T06:00:26.459Z,15.33
2017-05-25T06:02:52.880Z,15.22
2017-05-25T06:05:19.604Z,15.58
2017-05-25T06:07:46.117Z,14.96
2017-05-25T06:10:12.695Z,15.33
2017-05-25T06:12:39.351Z,15.18
2017-05-25T06:15:05.769Z,15.14
2017-05-25T06:17:32.325Z,15.34
2017-05-25T06:19:59.171Z,15.69
2017-05-25T06:22:30.748Z,15.42
2017-05-25T06:25:01.083Z,15.40
2017-05-25T06:27:27.526Z,15.13
2017-05-25T06:29:59.348Z,15.36
2017-05-25T06:32:31.837Z,15.36
2017-05-25T06:34:58.451Z,15.44
2017-05-25T06:37:24.861Z,16.24
2017-05-25T06:39:51.502Z,15.51
2017-05-25T06:42:18.077Z,15.23
2017-05-25T06:44:44.407Z,15.59
2017-05-25T06:47:10.833Z,15.76
2017-05-25T06:49:37.232Z,15.70
2017-05-25T06:52:03.614Z,15.56
2017-05-25T06:54:30.202Z,15.56
2017-05-25T06:56:56.567Z,15.21
2017-05-25T06:59:28.003Z,15.55
2017-05-25T07:01:54.485Z,16.48
2017-05-25T07:04:21.154Z,16.26
2017-05-25T07:06:47.769Z,15.92
2017-05-25T07:09:14.274Z,15.95
2017-05-25T07:11:40.868Z,15.93
2017-05-25T07:14:12.850Z,16.18
2017-05-25T07:16:44.812Z,15.93
2017-05-25T07:19:11.233Z,16.36
2017-05-25T07:21:43.682Z,16.26
2017-05-25T07:24:15.739Z,16.13
2017-05-25T07:26:42.488Z,15.95
2017-05-25T07:29:14.120Z,15.90
2017-05-25T07:31:40.536Z,15.81
2017-05-25T07:34:07.179Z,15.63
2017-05-25T07:36:33.513Z,15.68
2017-05-25T07:38:59.937Z,15.68
2017-05-25T07:41:26.572Z,15.70
2017-05-25T07:43:53.535Z,15.71
2017-05-25T07:46:20.914Z,15.94
2017-05-25T07:48:52.689Z,16.21
2017-05-25T07:51:19.052Z,16.55
2017-05-25T07:53:50.628Z,15.97
2017-05-25T07:56:17.103Z,16.11
2017-05-25T07:58:46.590Z,15.85
2017-05-25T08:01:24.397Z,16.17
2017-05-25T08:03:56.042Z,16.01
2017-05-25T08:06:22.602Z,17.34
2017-05-25T08:08:49.022Z,16.36
2017-05-25T08:11:20.718Z,16.63
2017-05-25T08:13:52.224Z,16.56
2017-05-25T08:16:18.750Z,17.15
2017-05-25T08:18:45.340Z,16.80
2017-05-25T08:21:16.840Z,17.34
2017-05-25T08:23:43.189Z,17.50
2017-05-25T08:26:09.521Z,17.08
2017-05-25T08:28:35.878Z,17.10
2017-05-25T08:31:02.210Z,17.28
2017-05-25T08:33:28.534Z,17.37
2017-05-25T08:35:54.869Z,17.47
2017-05-25T08:38:21.258Z,17.72
2017-05-25T08:40:47.596Z,17.64
2017-05-25T08:43:13.935Z,17.65
2017-05-25T08:45:40.307Z,17.83
2017-05-25T08:48:06.712Z,18.61
2017-05-25T08:50:33.026Z,17.76
2017-05-25T08:52:59.347Z,17.51
2017-05-25T08:55:25.694Z,18.25
2017-05-25T08:57:52.053Z,18.07
2017-05-25T09:00:18.423Z,18.18
2017-05-25T09:02:44.769Z,18.58
2017-05-25T09:05:11.098Z,18.85
2017-05-25T09:07:37.481Z,18.89
2017-05-25T09:10:03.843Z,19.09
2017-05-25T09:12:30.203Z,19.75
2017-05-25T09:14:56.561Z,18.82
2017-05-25T09:17:22.907Z,18.86
2017-05-25T09:19:49.260Z,18.93
2017-05-25T09:22:15.586Z,19.06
2017-05-25T09:24:42.018Z,19.91
2017-05-25T09:27:08.733Z,19.07
2017-05-25T09:29:35.113Z,19.99
2017-05-25T09:32:01.445Z,19.48
2017-05-25T09:34:27.797Z,19.94
2017-05-25T09:36:54.153Z,19.29
2017-05-25T09:39:20.525Z,18.44
2017-05-25T09:41:46.870Z,19.91
2017-05-25T09:44:13.268Z,20.43
2017-05-25T09:46:39.603Z,19.94
2017-05-25T09:49:05.967Z,19.94
2017-05-25T09:51:32.295Z,20.10
2017-05-25T09:53:58.640Z,19.36
2017-05-25T09:56:24.955Z,20.54
2017-05-25T09:58:51.279Z,20.54
2017-05-25T10:01:17.603Z,20.32
2017-05-25T10:03:43.953Z,20.38
2017-05-25T10:06:10.753Z,20.66
2017-05-25T10:08:37.080Z,19.56
2017-05-25T10:11:03.742Z,21.90
2017-05-25T10:13:30.083Z,21.25
2017-05-25T10:15:56.472Z,20.54
2017-05-25T10:18:22.836Z,20.56
2017-05-25T10:20:49.235Z,20.01
2017-05-25T10:23:15.632Z,21.32
2017-05-25T10:25:41.980Z,20.98
2017-05-25T10:28:08.348Z,19.55
2017-05-25T10:30:34.706Z,20.30
2017-05-25T10:33:01.047Z,21.03
2017-05-25T10:35:27.437Z,21.85
2017-05-25T10:37:53.769Z,22.24
2017-05-25T10:40:20.110Z,21.70
2017-05-25T10:42:46.443Z,23.89
2017-05-25T10:45:12.783Z,22.79
2017-05-25T10:47:39.127Z,22.27
2017-05-25T10:50:05.448Z,21.99
2017-05-25T10:52:31.821Z,21.89
2017-05-25T10:54:58.181Z,21.99
2017-05-25T10:57:24.510Z,21.47
2017-05-25T10:59:50.842Z,21.98
2017-05-25T11:02:17.209Z,21.78
2017-05-25T11:04:43.569Z,22.20
2017-05-25T11:07:09.890Z,22.10
2017-05-25T11:09:36.231Z,22.00
2017-05-25T11:12:02.603Z,22.95
2017-05-25T11:14:28.939Z,23.04
2017-05-25T11:16:55.286Z,22.73
2017-05-25T11:19:21.609Z,22.66
2017-05-25T11:21:47.961Z,22.51
2017-05-25T11:24:14.301Z,22.25
2017-05-25T11:26:40.657Z,22.54
2017-05-25T11:29:07.002Z,22.60
2017-05-25T11:31:33.320Z,23.07
2017-05-25T11:33:59.861Z,23.11
2017-05-25T11:36:26.192Z,23.33
2017-05-25T11:38:52.532Z,23.81
2017-05-25T11:41:18.879Z,24.12
2017-05-25T11:43:45.242Z,23.52
2017-05-25T11:46:11.580Z,23.55
2017-05-25T11:48:37.929Z,24.03
2017-05-25T11:51:04.273Z,23.81
2017-05-25T11:53:30.643Z,24.60
2017-05-25T11:55:56.987Z,23.47
2017-05-25T11:58:23.338Z,23.17
2017-05-25T12:00:49.683Z,23.17
2017-05-25T12:03:16.035Z,23.70
2017-05-25T12:05:42.369Z,24.25
2017-05-25T12:08:08.694Z,24.60
2017-05-25T12:10:36.216Z,24.05
2017-05-25T12:13:02.550Z,23.80
2017-05-25T12:15:28.931Z,24.63
2017-05-25T12:17:55.257Z,24.09
2017-05-25T12:20:21.594Z,24.00
2017-05-25T12:22:47.931Z,24.28
2017-05-25T12:25:14.266Z,25.00
2017-05-25T12:27:40.598Z,24.64
2017-05-25T12:30:06.936Z,24.57
2017-05-25T12:32:33.255Z,24.71
2017-05-25T12:34:59.606Z,25.06
2017-05-25T12:37:26.419Z,25.06
2017-05-25T12:39:53.229Z,24.90
2017-05-25T12:42:19.623Z,25.32
2017-05-25T12:44:45.968Z,26.31
2017-05-25T12:47:12.657Z,26.06
2017-05-25T12:49:39.003Z,25.53
2017-05-25T12:52:06.730Z,25.54
2017-05-25T12:54:34.628Z,25.67
2017-05-25T12:57:02.447Z,25.57
2017-05-25T12:59:30.406Z,25.39
2017-05-25T13:01:58.215Z,25.45
2017-05-25T13:04:26.254Z,26.01
2017-05-25T13:06:52.659Z,25.60
2017-05-25T13:09:18.956Z,25.84
2017-05-25T13:11:45.274Z,25.34
2017-05-25T13:14:11.602Z,25.08
2017-05-25T13:16:37.929Z,25.04
2017-05-25T13:19:04.241Z,25.32
2017-05-25T13:21:30.606Z,25.39
2017-05-25T13:23:56.932Z,25.72
2017-05-25T13:26:23.310Z,25.12
2017-05-25T13:28:49.652Z,24.98
2017-05-25T13:31:15.991Z,25.57
2017-05-25T13:33:42.361Z,25.51
2017-05-25T13:36:08.708Z,25.99
2017-05-25T13:38:35.029Z,26.36
2017-05-25T13:41:01.357Z,25.96
2017-05-25T13:43:27.684Z,26.14
2017-05-25T13:45:53.997Z,25.97
2017-05-25T13:48:20.315Z,26.15
2017-05-25T13:50:46.645Z,26.21
2017-05-25T13:53:13.042Z,26.90
2017-05-25T13:55:39.355Z,26.83
2017-05-25T13:58:05.698Z,26.88
2017-05-25T14:00:32.043Z,26.64
2017-05-25T14:02:58.373Z,26.31
2017-05-25T14:05:24.707Z,26.32
2017-05-25T14:07:51.034Z,27.40
2017-05-25T14:10:17.358Z,26.43
2017-05-25T14:12:43.688Z,26.55
2017-05-25T14:15:10.035Z,26.74
2017-05-25T14:17:36.401Z,26.55
2017-05-25T14:20:02.732Z,27.14
2017-05-25T14:22:29.067Z,26.40
2017-05-25T14:24:55.377Z,26.64
2017-05-25T14:27:21.691Z,26.45
2017-05-25T14:29:48.013Z,26.72
2017-05-25T14:32:14.345Z,26.62
2017-05-25T14:34:40.677Z,26.60
2017-05-25T14:37:07.014Z,26.64
2017-05-25T14:39:33.334Z,26.74
2017-05-25T14:41:59.668Z,26.35
2017-05-25T14:44:26.065Z,26.60
2017-05-25T14:46:52.402Z,26.81
2017-05-25T14:49:18.735Z,26.94
2017-05-25T14:51:45.056Z,27.14
2017-05-25T14:54:11.379Z,27.06
2017-05-25T14:56:37.754Z,27.29
2017-05-25T14:59:04.093Z,27.43
2017-05-25T15:01:30.433Z,27.24
2017-05-25T15:03:56.754Z,27.55
2017-05-25T15:06:23.070Z,27.95
2017-05-25T15:08:49.412Z,27.80
2017-05-25T15:11:15.718Z,27.19
2017-05-25T15:13:42.034Z,27.46
2017-05-25T15:16:08.364Z,27.05
2017-05-25T15:18:34.682Z,27.15
2017-05-25T15:21:01.011Z,26.91
2017-05-25T15:23:27.327Z,27.30
2017-05-25T15:25:53.650Z,27.05
2017-05-25T15:28:19.976Z,27.25
2017-05-25T15:30:46.321Z,27.20
2017-05-25T15:33:12.654Z,26.95
2017-05-25T15:35:38.969Z,26.91
2017-05-25T15:38:05.300Z,26.50
2017-05-25T15:40:31.629Z,26.94
2017-05-25T15:42:57.963Z,26.92
2017-05-25T15:45:24.283Z,27.16
2017-05-25T15:47:50.598Z,27.11
2017-05-25T15:50:16.909Z,26.97
2017-05-25T15:52:43.281Z,26.40
2017-05-25T15:55:09.618Z,26.70
2017-05-25T15:57:35.964Z,26.61
2017-05-25T16:00:02.323Z,26.29
2017-05-25T16:02:28.657Z,26.07
2017-05-25T16:04:54.984Z,25.74
2017-05-25T16:07:21.331Z,26.34
2017-05-25T16:09:47.674Z,26.33
2017-05-25T16:12:14.016Z,25.75
2017-05-25T16:14:40.350Z,26.50
2017-05-25T16:17:06.667Z,26.21
2017-05-25T16:19:33.018Z,25.62
2017-05-25T16:21:59.374Z,25.88
2017-05-25T16:24:25.708Z,25.98
2017-05-25T16:26:52.017Z,25.40
2017-05-25T16:29:18.353Z,25.17
2017-05-25T16:31:44.676Z,25.22
2017-05-25T16:34:11.018Z,24.98
2017-05-25T16:36:37.397Z,25.17
2017-05-25T16:39:03.822Z,24.91
2017-05-25T16:41:30.151Z,25.11
2017-05-25T16:43:56.499Z,24.56
2017-05-25T16:46:22.825Z,24.82
2017-05-25T16:48:49.214Z,24.91
2017-05-25T16:51:15.542Z,25.21
2017-05-25T16:53:41.889Z,25.11
2017-05-25T16:56:08.248Z,24.89
2017-05-25T16:58:34.627Z,24.59
2017-05-25T17:01:00.983Z,24.46
2017-05-25T17:03:27.320Z,24.38
2017-05-25T17:05:53.638Z,24.25
2017-05-25T17:08:20.056Z,23.91
2017-05-25T17:10:46.390Z,23.88
2017-05-25T17:13:12.731Z,23.71
2017-05-25T17:15:39.076Z,23.84
2017-05-25T17:18:05.442Z,23.45
2017-05-25T17:20:31.779Z,23.53
2017-05-25T17:22:58.138Z,23.62
2017-05-25T17:25:24.472Z,23.41
2017-05-25T17:27:50.837Z,23.14
2017-05-25T17:30:17.524Z,23.32
2017-05-25T17:32:43.876Z,23.44
2017-05-25T17:35:10.228Z,23.05
2017-05-25T17:37:36.899Z,23.20
2017-05-25T17:40:03.265Z,23.22
2017-05-25T17:42:29.620Z,23.14
2017-05-25T17:44:55.985Z,22.90
2017-05-25T17:47:22.324Z,22.97
2017-05-25T17:49:48.681Z,22.78
2017-05-25T17:52:15.067Z,22.69
2017-05-25T17:54:41.411Z,22.71
2017-05-25T17:57:07.782Z,22.53
2017-05-25T17:59:34.147Z,22.64
2017-05-25T18:02:00.520Z,22.60
2017-05-25T18:04:26.913Z,22.48
2017-05-25T18:06:53.277Z,22.34
2017-05-25T18:09:19.677Z,22.03
2017-05-25T18:11:46.024Z,22.22
2017-05-25T18:14:12.744Z,22.38
2017-05-25T18:16:39.096Z,22.29
2017-05-25T18:19:05.446Z,22.27
2017-05-25T18:21:31.841Z,22.06
2017-05-25T18:23:58.269Z,22.16
2017-05-25T18:26:24.649Z,21.88
2017-05-25T18:28:50.974Z,21.66
2017-05-25T18:31:17.371Z,21.72
2017-05-25T18:33:43.721Z,21.59
2017-05-25T18:36:10.080Z,21.52
2017-05-25T18:38:36.433Z,21.43
2017-05-25T18:41:02.837Z,21.39
2017-05-25T18:43:29.212Z,21.12
2017-05-25T18:45:55.602Z,21.02
2017-05-25T18:48:21.986Z,20.95
2017-05-25T18:50:48.366Z,20.97
2017-05-25T18:53:14.777Z,21.01
2017-05-25T18:55:41.133Z,20.94
2017-05-25T18:58:07.504Z,20.89
2017-05-25T19:00:33.876Z,20.54
2017-05-25T19:03:00.258Z,20.81
2017-05-25T19:05:26.594Z,20.52
2017-05-25T19:07:53.033Z,20.12
2017-05-25T19:10:19.416Z,20.39
2017-05-25T19:12:46.164Z,20.07
2017-05-25T19:15:12.626Z,19.95
2017-05-25T19:17:38.975Z,19.81
2017-05-25T19:20:05.324Z,20.01
2017-05-25T19:22:31.754Z,20.01
2017-05-25T19:24:58.120Z,20.02
2017-05-25T19:27:24.492Z,19.80
2017-05-25T19:29:50.910Z,20.15
2017-05-25T19:32:17.270Z,20.09
2017-05-25T19:34:43.682Z,19.63
2017-05-25T19:37:10.050Z,19.99
2017-05-25T19:39:36.408Z,19.89
2017-05-25T19:42:02.798Z,19.87
2017-05-25T19:44:29.158Z,19.51
2017-05-25T19:46:55.514Z,19.11
2017-05-25T19:49:21.897Z,19.20
2017-05-25T19:51:48.252Z,19.44
2017-05-25T19:54:14.611Z,19.68
2017-05-25T19:56:40.982Z,20.22
2017-05-25T19:59:07.354Z,19.75
2017-05-25T20:01:33.767Z,19.60
2017-05-25T20:04:00.112Z,19.70
2017-05-25T20:06:26.479Z,19.31
2017-05-25T20:08:52.882Z,19.08
2017-05-25T20:11:19.283Z,19.89
2017-05-25T20:13:45.633Z,20.26
2017-05-25T20:16:11.984Z,19.75
2017-05-25T20:18:38.800Z,20.53
2017-05-25T20:21:05.189Z,20.75
2017-05-25T20:23:31.550Z,20.75
2017-05-25T20:25:57.912Z,19.98
2017-05-25T20:28:24.277Z,18.02
2017-05-25T20:30:50.634Z,17.94
2017-05-25T20:33:17.019Z,18.20
2017-05-25T20:35:43.401Z,17.89
2017-05-25T20:38:09.776Z,18.60
2017-05-25T20:40:36.181Z,19.65
2017-05-25T20:43:02.538Z,20.02
2017-05-25T20:45:28.892Z,18.73
2017-05-25T20:47:55.333Z,19.72
2017-05-25T20:50:21.697Z,19.92
2017-05-25T20:52:48.519Z,20.00
2017-05-25T20:55:14.906Z,20.00
2017-05-25T20:57:41.261Z,19.99
2017-05-25T21:00:08.409Z,19.60
2017-05-25T21:02:34.740Z,18.66
2017-05-25T21:05:01.168Z,17.44
2017-05-25T21:07:27.534Z,17.60
2017-05-25T21:09:54.190Z,18.93
2017-05-25T21:12:20.625Z,19.41
2017-05-25T21:14:46.968Z,19.62
2017-05-25T21:17:13.355Z,18.32
2017-05-25T21:19:39.801Z,18.01
2017-05-25T21:22:06.232Z,17.79
2017-05-25T21:24:32.582Z,17.91
2017-05-25T21:26:58.939Z,18.47
2017-05-25T21:29:25.316Z,19.42
2017-05-25T21:31:51.685Z,19.56
2017-05-25T21:34:18.014Z,19.63
2017-05-25T21:36:44.381Z,19.55
2017-05-25T21:39:10.718Z,19.35
2017-05-25T21:41:37.094Z,18.12
2017-05-25T21:44:03.429Z,17.67
2017-05-25T21:46:29.772Z,17.76
2017-05-25T21:48:56.112Z,18.16
2017-05-25T21:51:22.472Z,17.02
2017-05-25T21:53:48.799Z,16.54
2017-05-25T21:56:15.163Z,17.65
2017-05-25T21:58:41.518Z,19.04
2017-05-25T22:01:07.873Z,18.73
2017-05-25T22:03:34.211Z,19.08
2017-05-25T22:06:00.573Z,18.55
2017-05-25T22:08:26.910Z,17.20
2017-05-25T22:10:53.273Z,16.51
2017-05-25T22:13:19.638Z,16.83
2017-05-25T22:15:46.006Z,17.02
2017-05-25T22:18:12.388Z,17.82
2017-05-25T22:20:38.776Z,18.03
2017-05-25T22:23:05.132Z,18.52
2017-05-25T22:25:31.490Z,17.99
2017-05-25T22:27:57.870Z,17.06
2017-05-25T22:30:24.213Z,16.59
2017-05-25T22:32:50.557Z,16.18
2017-05-25T22:35:16.932Z,16.09
2017-05-25T22:37:43.296Z,16.36
2017-05-25T22:40:09.638Z,16.08
2017-05-25T22:42:35.972Z,15.88
2017-05-25T22:45:02.376Z,15.90
2017-05-25T22:47:28.737Z,15.64
2017-05-25T22:49:55.115Z,15.79
2017-05-25T22:52:21.469Z,15.89
2017-05-25T22:54:47.822Z,16.15
2017-05-25T22:57:14.176Z,16.36
2017-05-25T22:59:40.522Z,17.60
2017-05-25T23:02:06.868Z,18.30
2017-05-25T23:04:33.288Z,18.32
2017-05-25T23:06:59.641Z,18.43
2017-05-25T23:09:26.012Z,18.34
2017-05-25T23:11:52.343Z,18.24
2017-05-25T23:14:18.727Z,18.17
2017-05-25T23:16:45.111Z,17.01
2017-05-25T23:19:11.506Z,15.43
2017-05-25T23:21:37.865Z,15.36
2017-05-25T23:24:04.224Z,16.11
2017-05-25T23:26:30.571Z,15.71
2017-05-25T23:28:56.945Z,15.74
2017-05-25T23:31:23.311Z,15.84
2017-05-25T23:33:49.664Z,16.33
2017-05-25T23:36:16.001Z,16.33
2017-05-25T23:38:42.366Z,15.72
2017-05-25T23:41:08.700Z,15.94
2017-05-25T23:43:35.051Z,16.06
2017-05-25T23:46:01.394Z,17.07
2017-05-25T23:48:27.723Z,16.16
2017-05-25T23:50:54.067Z,15.34
2017-05-25T23:53:20.441Z,15.39
2017-05-25T23:55:46.791Z,16.89
2017-05-25T23:58:13.129Z,17.05
